Time;durP1;ratioP1;P1;durP2;ratioP2;P2;SDS_P1;SDS_P2;PMS_P1;PMS_P2;Temp;Humidity;BMP_temperature;BMP_pressure;BME280_temperature;BME280_humidity;BME280_pressure;Samples;Min_cycle;Max_cycle;Signal;HPM_P1;HPM_P2
2023/05/22 00:01:23;;;;;;;;;;;;;;;;;;;;;
2023/05/22 00:04:20;;;;;;;31.63;18.92;;;;;;;15.95;100.00;101427.25;4854530;29;20052;-94
2023/05/22 00:07:33;;;;;;;;;;;;;;;;;;;;;
2023/05/22 00:10:03;;;;;;;33.05;19.13;;;;;;;15.95;100.00;101433.34;4880844;29;20050;-94
2023/05/22 00:13:00;;;;;;;29.20;18.73;;;;;;;16.04;100.00;101453.06;4908750;29;20585;-96
2023/05/22 00:16:00;;;;;;;29.77;19.08;;;;;;;16.00;100.00;101449.72;4903903;29;20040;-95
2023/05/22 00:19:17;;;;;;;32.58;19.77;;;;;;;15.97;100.00;101456.81;4900732;29;20119;-94
2023/05/22 00:25:28;;;;;;;32.22;18.13;;;;;;;15.90;100.00;101442.28;4944382;29;20052;-95
2023/05/22 00:28:25;;;;;;;30.63;19.15;;;;;;;16.04;100.00;101467.00;4928902;29;20295;-92
2023/05/22 00:31:39;;;;;;;31.92;19.60;;;;;;;15.94;100.00;101444.72;4955752;28;20142;-95
2023/05/22 00:38:40;;;;;;;32.85;19.25;;;;;;;15.84;100.00;101421.56;4856326;29;20086;-95
2023/05/22 00:41:55;;;;;;;33.00;19.85;;;;;;;15.97;100.00;101451.56;4863145;29;20039;-94
2023/05/22 00:44:55;;;;;;;31.42;18.77;;;;;;;15.87;100.00;101442.38;4844183;29;20193;-95
2023/05/22 00:48:14;;;;;;;31.17;19.98;;;;;;;15.79;100.00;101433.03;4867509;29;20047;-94
2023/05/22 00:51:00;;;;;;;30.80;19.17;;;;;;;15.83;100.00;101432.94;4853941;29;20048;-93
2023/05/22 00:57:43;;;;;;;31.92;18.98;;;;;;;15.74;100.00;101432.38;4946246;29;20051;-94
2023/05/22 01:00:48;;;;;;;34.85;20.15;;;;;;;15.78;100.00;101427.88;4931977;29;20042;-94
2023/05/22 01:03:49;;;;;;;36.20;20.27;;;;;;;15.69;100.00;101420.38;4923344;29;20102;-95
2023/05/22 01:06:57;;;;;;;;;;;;;;;;;;;;;
2023/05/22 01:09:57;;;;;;;;;;;;;;;;;;;;;
2023/05/22 01:23:01;;;;;;;29.45;20.00;;;;;;;15.75;100.00;101428.84;4874172;29;20465;-94
2023/05/22 01:33:10;;;;;;;28.75;18.77;;;;;;;15.66;100.00;101433.53;4826088;29;20117;-95
2023/05/22 01:39:08;;;;;;;29.02;19.30;;;;;;;15.56;100.00;101429.56;4778714;30;20103;-95
2023/05/22 01:42:41;;;;;;;;;;;;;;;;;;;;;
2023/05/22 01:52:12;;;;;;;28.95;18.70;;;;;;;15.49;100.00;101418.41;4757862;30;20035;-95
2023/05/22 01:55:21;;;;;;;35.15;19.88;;;;;;;15.35;100.00;101413.66;4768960;30;20047;-96
2023/05/22 02:08:56;;;;;;;35.47;20.65;;;;;;;15.21;100.00;101402.00;4761170;30;21545;-94
2023/05/22 02:11:38;;;;;;;29.80;19.70;;;;;;;15.20;100.00;101408.13;4761930;30;20067;-94
2023/05/22 02:17:58;;;;;;;;;;;;;;;;;;;;;
2023/05/22 02:38:11;;;;;;;39.30;22.73;;;;;;;15.02;100.00;101412.16;4877754;23;20113;-74
2023/05/22 02:43:09;;;;;;;33.63;21.35;;;;;;;14.98;100.00;101405.34;4963219;28;20063;-75
2023/05/22 02:45:35;;;;;;;36.88;21.25;;;;;;;14.97;100.00;101403.63;4993434;23;20095;-74
2023/05/22 02:48:02;;;;;;;33.85;21.20;;;;;;;14.96;100.00;101400.19;4964344;28;20043;-75
2023/05/22 02:50:27;;;;;;;34.72;21.63;;;;;;;14.93;100.00;101399.44;5055077;23;20888;-74
2023/05/22 02:56:48;;;;;;;34.60;21.33;;;;;;;14.79;100.00;101375.53;4959561;28;20121;-93
2023/05/22 02:59:41;;;;;;;36.72;21.52;;;;;;;14.91;100.00;101398.63;4958965;28;20039;-92
2023/05/22 03:02:42;;;;;;;35.42;21.20;;;;;;;14.78;100.00;101379.06;4961566;28;20462;-93
2023/05/22 03:05:42;;;;;;;;;;;;;;;;;;;;;
2023/05/22 03:08:47;;;;;;;34.05;21.17;;;;;;;14.84;100.00;101403.19;4958145;28;20035;-93
2023/05/22 03:11:40;;;;;;;37.55;22.45;;;;;;;14.66;100.00;101369.88;4952573;28;20070;-93
2023/05/22 03:14:37;;;;;;;34.38;22.15;;;;;;;14.67;100.00;101384.59;4962080;28;20050;-92
2023/05/22 03:17:08;;;;;;;34.65;21.73;;;;;;;14.56;100.00;101369.28;4961920;28;20036;-92
2023/05/22 03:20:39;;;;;;;38.17;22.17;;;;;;;14.74;100.00;101388.72;4955868;28;20074;-92
2023/05/22 03:23:28;;;;;;;43.63;24.08;;;;;;;14.59;100.00;101374.44;4955504;28;20035;-93
2023/05/22 03:26:44;;;;;;;34.53;23.25;;;;;;;14.61;100.00;101384.78;4974571;28;20047;-93
2023/05/22 03:55:58;;;;;;;41.85;24.85;;;;;;;14.43;100.00;101383.63;5022468;23;19936;-74
2023/05/22 04:01:12;;;;;;;38.38;24.92;;;;;;;14.46;100.00;101388.75;4982416;23;20202;-74
2023/05/22 04:03:38;;;;;;;42.80;27.23;;;;;;;14.42;100.00;101386.28;5178168;23;20077;-74
2023/05/22 04:11:29;;;;;;;45.22;27.27;;;;;;;14.43;100.00;101383.63;5194121;23;20026;-74
2023/05/22 04:13:54;;;;;;;49.15;28.85;;;;;;;14.43;100.00;101388.00;5038365;23;20058;-75
2023/05/22 04:16:21;;;;;;;43.63;27.17;;;;;;;14.46;100.00;101399.19;5193912;23;20039;-74
2023/05/22 04:18:46;;;;;;;46.75;28.88;;;;;;;14.48;100.00;101406.94;5075832;23;20746;-76
2023/05/22 04:21:11;;;;;;;51.78;30.58;;;;;;;14.43;100.00;101388.84;5038149;23;20066;-74
2023/05/22 04:23:37;;;;;;;48.40;30.00;;;;;;;14.47;100.00;101397.41;5013509;23;20051;-75
2023/05/22 04:26:02;;;;;;;46.28;28.73;;;;;;;14.48;100.00;101392.16;5011226;23;20324;-74
2023/05/22 04:28:29;;;;;;;46.55;29.13;;;;;;;14.45;100.00;101387.06;5077293;23;20147;-76
2023/05/22 04:33:27;;;;;;;48.22;29.58;;;;;;;14.54;100.00;101398.94;5053097;23;20785;-75
2023/05/22 04:35:53;;;;;;;49.50;31.27;;;;;;;14.48;100.00;101396.53;5038442;23;20066;-75
2023/05/22 04:38:18;;;;;;;45.85;30.13;;;;;;;14.52;100.00;101401.63;5001963;23;20055;-74
2023/05/22 04:40:44;;;;;;;56.95;32.45;;;;;;;14.43;100.00;101394.06;5085410;23;20063;-95
2023/05/22 04:43:13;;;;;;;46.80;30.08;;;;;;;14.51;100.00;101407.72;4977209;23;20563;-76
2023/05/22 04:45:41;;;;;;;50.28;31.15;;;;;;;14.51;100.00;101402.50;4965435;28;20046;-76
2023/05/22 04:48:06;;;;;;;48.80;29.65;;;;;;;14.55;100.00;101409.31;5005297;23;20054;-75
2023/05/22 04:50:32;;;;;;;45.60;30.20;;;;;;;14.54;100.00;101417.19;5027217;23;20065;-75
2023/05/22 04:58:11;;;;;;;49.28;31.08;;;;;;;14.62;100.00;101425.66;5087650;23;20037;-75
2023/05/22 05:00:36;;;;;;;52.95;31.27;;;;;;;14.61;100.00;101418.72;5100240;23;20483;-75
2023/05/22 05:03:02;;;;;;;55.05;32.38;;;;;;;14.62;100.00;101426.50;5001115;23;20082;-75
2023/05/22 05:05:28;;;;;;;51.17;32.30;;;;;;;14.63;100.00;101412.56;5111063;23;20058;-75
2023/05/22 05:10:38;;;;;;;55.05;31.80;;;;;;;14.70;100.00;101434.09;5072469;23;20134;-75
2023/05/22 05:13:03;;;;;;;53.45;32.92;;;;;;;14.73;100.00;101425.31;5028493;23;20074;-75
2023/05/22 05:15:29;;;;;;;54.67;32.53;;;;;;;14.75;100.00;101431.31;4969143;23;20459;-76
2023/05/22 05:17:54;;;;;;;59.88;31.92;;;;;;;14.73;100.00;101425.31;5230955;23;20047;-75
2023/05/22 05:23:00;;;;;;;54.75;31.83;;;;;;;14.74;100.00;101433.09;5451362;23;20041;-75
2023/05/22 05:25:26;;;;;;;55.33;30.63;;;;;;;14.72;100.00;101421.84;5199655;23;20062;-75
2023/05/22 05:32:51;;;;;;;54.05;30.35;;;;;;;14.81;100.00;101437.22;4960812;28;20129;-76
2023/05/22 05:39:01;;;;;;;53.17;29.08;;;;;;;14.85;100.00;101437.97;4906428;23;20080;-75
2023/05/22 05:41:30;;;;;;;52.45;28.92;;;;;;;14.84;100.00;101431.03;5103746;23;20052;31
2023/05/22 05:46:27;;;;;;;53.63;29.08;;;;;;;14.92;100.00;101435.13;4977424;23;20055;-75
2023/05/22 05:48:52;;;;;;;58.85;30.88;;;;;;;14.94;100.00;101441.13;4988655;23;20043;-75
2023/05/22 05:53:57;;;;;;;57.42;30.15;;;;;;;14.95;100.00;101437.63;5142698;23;19929;-94
2023/05/22 05:56:22;;;;;;;53.53;29.75;;;;;;;14.95;100.00;101448.06;4962313;23;1097371;-74
2023/05/22 06:01:31;;;;;;;62.30;31.10;;;;;;;14.98;100.00;101449.75;5045906;23;20059;-74
2023/05/22 06:04:01;;;;;;;64.93;31.60;;;;;;;15.05;100.00;101453.84;5188422;23;20125;-73
2023/05/22 06:06:28;;;;;;;62.17;32.08;;;;;;;15.12;100.00;101450.16;4941715;28;20047;-73
2023/05/22 06:11:40;;;;;;;57.38;30.80;;;;;;;15.21;100.00;101446.38;5200675;23;20066;-73
2023/05/22 06:14:07;;;;;;;62.70;32.75;;;;;;;15.30;100.00;101456.50;5468087;23;20747;-74
2023/05/22 06:16:32;;;;;;;63.00;32.30;;;;;;;15.38;100.00;101462.34;5106344;23;20058;-74
2023/05/22 06:21:34;;;;;;;55.90;30.50;;;;;;;15.54;100.00;101447.03;5074035;23;20050;-74
2023/05/22 06:24:00;;;;;;;56.50;31.08;;;;;;;15.69;100.00;101456.97;5275829;23;20030;-74
2023/05/22 06:26:58;;;;;;;49.33;28.45;;;;;;;15.63;100.00;101439.72;5187278;23;20066;-74
2023/05/22 06:32:11;;;;;;;51.10;29.63;;;;;;;16.00;100.00;101464.56;5123212;23;20050;-73
2023/05/22 06:34:37;;;;;;;51.10;28.80;;;;;;;16.11;100.00;101473.72;5154339;23;20181;-74
2023/05/22 06:37:02;;;;;;;50.90;28.98;;;;;;;16.19;100.00;101460.34;4984922;23;20031;-74
2023/05/22 06:44:40;;;;;;;54.45;30.27;;;;;;;16.58;100.00;101471.91;5052547;23;20050;-74
2023/05/22 06:47:05;;;;;;;53.75;29.70;;;;;;;16.69;100.00;101465.47;5076152;23;20049;-74
2023/05/22 06:52:06;;;;;;;54.97;29.85;;;;;;;17.08;100.00;101471.72;5002988;23;20196;-74
2023/05/22 06:57:04;;;;;;;49.85;29.90;;;;;;;17.26;100.00;101472.75;4981548;28;20059;-75
2023/05/22 07:09:36;;;;;;;52.13;30.00;;;;;;;17.50;100.00;101483.97;5343091;23;20037;-76
2023/05/22 07:14:36;;;;;;;54.00;28.60;;;;;;;17.52;100.00;101482.16;5036202;23;20057;-73
2023/05/22 07:17:02;;;;;;;49.28;28.45;;;;;;;17.53;100.00;101489.97;5100271;23;20115;-79
2023/05/22 07:21:58;;;;;;;54.17;29.50;;;;;;;17.57;100.00;101488.91;4967198;28;20059;-78
2023/05/22 07:24:24;;;;;;;54.42;29.33;;;;;;;17.63;100.00;101493.91;4970453;28;20031;-78
2023/05/22 07:26:49;;;;;;;53.80;29.50;;;;;;;17.72;100.00;101490.91;5214996;23;20082;-79
2023/05/22 07:30:10;;;;;;;52.28;28.50;;;;;;;17.96;100.00;101496.84;5106451;23;20109;-95
2023/05/22 07:33:16;;;;;;;52.28;28.27;;;;;;;18.07;100.00;101475.41;4925930;28;20069;-96
2023/05/22 07:36:17;;;;;;;53.42;28.73;;;;;;;18.25;100.00;101479.81;4964484;28;20038;-95
2023/05/22 07:39:08;;;;;;;48.97;27.95;;;;;;;18.58;100.00;101511.56;4948345;28;20047;-96
2023/05/22 07:56:38;;;;;;;47.75;26.67;;;;;;;19.08;97.01;101514.44;4740219;29;20060;-94
2023/05/22 08:05:58;;;;;;;43.15;25.25;;;;;;;19.64;92.17;101506.44;4896656;23;20107;-80
2023/05/22 08:08:24;;;;;;;47.55;28.05;;;;;;;19.70;90.34;101505.25;5495757;23;20075;-79
2023/05/22 08:10:50;;;;;;;48.58;26.98;;;;;;;20.21;93.60;101508.72;4994989;28;20019;-79
2023/05/22 08:13:17;;;;;;;47.58;27.13;;;;;;;20.54;89.65;101495.56;5195397;23;20142;-79
2023/05/22 08:18:19;;;;;;;48.95;28.10;;;;;;;20.90;90.37;101512.81;5000774;23;20043;-80
2023/05/22 08:23:14;;;;;;;53.38;28.90;;;;;;;20.99;86.66;101505.34;5188412;23;20041;-78
2023/05/22 08:25:40;;;;;;;47.72;26.77;;;;;;;21.32;88.87;101500.78;4978606;28;20043;-79
2023/05/22 08:28:05;;;;;;;49.38;28.70;;;;;;;21.64;87.16;101497.09;4980117;28;20031;-78
2023/05/22 08:30:31;;;;;;;48.40;29.02;;;;;;;21.80;84.43;101491.78;4998096;23;20421;-76
2023/05/22 08:32:56;;;;;;;44.75;27.42;;;;;;;21.90;85.35;101490.28;4968670;28;20583;-76
2023/05/22 08:35:22;;;;;;;47.47;26.77;;;;;;;22.19;81.04;101490.31;5104794;23;20062;-77
2023/05/22 08:37:48;;;;;;;46.67;27.70;;;;;;;22.49;76.96;101493.69;4992247;28;20488;-71
2023/05/22 08:40:14;;;;;;;47.25;26.95;;;;;;;22.70;79.63;101497.63;4982935;28;20101;-70
2023/05/22 08:52:50;;;;;;;44.42;27.52;;;;;;;23.19;74.07;101505.91;5257239;23;20051;-73
2023/05/22 08:55:18;;;;;;;41.92;26.33;;;;;;;23.16;77.14;101502.59;5270559;23;20063;-72
2023/05/22 09:01:03;;;;;;;;;;;;;;;;;;;;;
2023/05/22 09:03:47;;;;;;;46.15;27.70;;;;;;;22.93;76.84;101503.25;4944105;28;20043;-90
2023/05/22 09:06:30;;;;;;;46.53;28.27;;;;;;;22.49;75.12;101492.84;4961109;28;20142;-89
2023/05/22 09:09:33;;;;;;;42.47;27.35;;;;;;;22.25;78.04;101517.19;4945228;28;20109;-89
2023/05/22 09:12:28;;;;;;;43.85;27.88;;;;;;;22.16;81.26;101516.94;4931506;28;20141;-89
2023/05/22 09:15:43;;;;;;;46.28;27.38;;;;;;;22.45;80.86;101494.81;4949360;28;20036;-89
2023/05/22 09:18:26;;;;;;;47.17;28.30;;;;;;;22.84;74.25;101510.00;4947465;28;20031;-89
2023/05/22 09:21:07;;;;;;;42.93;26.67;;;;;;;22.54;75.07;101496.03;4947933;28;20035;-88
2023/05/22 09:23:49;;;;;;;43.55;27.20;;;;;;;22.60;78.69;101512.34;4950869;28;20043;-90
2023/05/22 09:26:32;;;;;;;41.75;26.98;;;;;;;22.69;77.97;101501.19;4945111;28;20098;-89
2023/05/22 09:29:31;;;;;;;43.42;27.30;;;;;;;23.04;78.01;101492.81;4947336;28;20058;-88
2023/05/22 09:32:21;;;;;;;45.75;27.58;;;;;;;23.06;78.32;101478.56;4945680;28;20043;-89
2023/05/22 09:35:26;;;;;;;42.15;25.48;;;;;;;23.43;76.60;101490.19;4946246;28;20053;-88
2023/05/22 09:38:01;;;;;;;46.50;27.83;;;;;;;23.59;76.53;101474.16;4941058;28;20151;-89
2023/05/22 09:40:33;;;;;;;43.08;27.80;;;;;;;23.90;73.32;101486.13;4931619;29;20044;-89
2023/05/22 09:43:16;;;;;;;43.03;27.00;;;;;;;23.94;74.30;101474.38;4933256;29;20063;-89
2023/05/22 09:46:03;;;;;;;44.88;28.13;;;;;;;23.96;71.58;101475.94;4931020;29;20058;-90
2023/05/22 09:48:42;;;;;;;41.30;25.90;;;;;;;24.34;72.80;101491.84;4932503;29;20983;-89
2023/05/22 09:51:26;;;;;;;41.28;25.92;;;;;;;24.34;71.22;101483.91;4946440;28;20630;-89
2023/05/22 09:54:24;;;;;;;;;;;;;;;24.54;74.60;101481.63;4930610;28;20036;-89
2023/05/22 09:57:20;;;;;;;40.75;25.17;;;;;;;24.36;70.13;101457.28;4930361;29;19939;-89
2023/05/22 10:00:00;;;;;;;40.22;25.92;;;;;;;24.52;69.82;101475.56;4943177;28;20071;-90
2023/05/22 10:02:35;;;;;;;41.00;25.88;;;;;;;24.51;68.65;101481.81;4931341;29;20083;-89
2023/05/22 10:05:37;;;;;;;41.50;25.23;;;;;;;24.56;68.64;101479.72;4932529;29;20044;-88
2023/05/22 10:08:45;;;;;;;37.38;24.50;;;;;;;24.62;72.37;101466.88;4925716;29;20040;-89
2023/05/22 10:11:39;;;;;;;38.72;24.75;;;;;;;24.65;70.05;101466.63;4946241;28;20052;-89
2023/05/22 10:14:13;;;;;;;37.63;24.23;;;;;;;24.73;68.05;101456.31;4925797;29;20067;-89
2023/05/22 10:16:55;;;;;;;35.13;24.27;;;;;;;24.85;69.62;101478.41;4928026;29;20058;-89
2023/05/22 10:19:35;;;;;;;37.55;24.67;;;;;;;24.87;70.72;101471.22;4939758;28;21059;-89
2023/05/22 10:22:13;;;;;;;33.95;22.73;;;;;;;24.90;68.04;101476.34;4930977;29;20046;-89
2023/05/22 10:25:03;;;;;;;39.05;25.48;;;;;;;24.96;70.17;101483.84;4930498;29;20043;-88
2023/05/22 10:27:33;;;;;;;37.85;25.05;;;;;;;24.86;69.22;101472.16;4942484;28;20217;-89
2023/05/22 10:30:23;;;;;;;41.45;24.77;;;;;;;25.03;68.45;101473.63;4941690;28;20052;-89
2023/05/22 10:33:01;;;;;;;39.67;25.25;;;;;;;25.01;69.43;101468.41;4930238;29;20044;-89
2023/05/22 10:35:58;;;;;;;40.47;26.42;;;;;;;25.13;67.14;101467.50;4947451;28;20043;-89
2023/05/22 11:12:07;;;;;;;40.72;25.70;;;;;;;24.90;65.11;101462.22;4174295;23;20046;-72
2023/05/22 11:35:19;;;;;;;35.45;24.38;;;;;;;24.85;67.91;101443.94;4561147;23;20061;-94
2023/05/22 11:40:37;;;;;;;44.13;25.17;;;;;;;25.02;65.45;101429.47;5049477;23;20615;-88
2023/05/22 11:43:44;;;;;;;37.92;24.42;;;;;;;25.08;65.77;101437.81;4942362;29;20040;-88
2023/05/22 11:46:26;;;;;;;42.22;26.80;;;;;;;25.10;65.49;101437.72;4944785;29;20039;-88
2023/05/22 11:49:11;;;;;;;40.90;24.80;;;;;;;25.07;67.71;101425.50;4939909;28;20047;-88
2023/05/22 11:51:53;;;;;;;42.75;26.20;;;;;;;25.09;65.30;101450.13;4958246;28;20051;-89
2023/05/22 11:58:01;;;;;;;44.65;27.77;;;;;;;24.95;66.63;101421.13;4939952;29;20035;-88
2023/05/22 12:00:50;;;;;;;44.60;27.05;;;;;;;24.94;64.49;101421.22;4946474;29;20035;-88
2023/05/22 12:03:31;;;;;;;41.65;26.25;;;;;;;25.05;66.50;101432.72;4955392;28;20315;-88
2023/05/22 12:06:07;;;;;;;43.78;27.15;;;;;;;25.06;63.32;101425.63;4942515;28;20066;-88
2023/05/22 12:08:57;;;;;;;43.13;27.35;;;;;;;24.89;65.97;101434.81;4940036;28;20075;-89
2023/05/22 12:11:49;;;;;;;41.28;24.80;;;;;;;24.80;67.44;101439.00;4945394;29;20046;-88
2023/05/22 12:14:37;;;;;;;37.28;24.52;;;;;;;24.91;65.94;101443.50;4957237;28;20039;-89
2023/05/22 12:17:11;;;;;;;42.05;27.33;;;;;;;24.73;64.29;101427.13;4958970;28;20492;-87
2023/05/22 12:59:12;;;;;;;43.65;27.17;;;;;;;24.64;65.86;101419.84;4735797;30;20201;-88
2023/05/22 13:04:40;;;;;;;38.03;23.95;;;;;;;24.37;67.59;101395.34;4756856;30;20845;-89
2023/05/22 13:07:12;;;;;;;36.40;23.25;;;;;;;24.60;66.88;101406.94;4762581;30;20603;-89
2023/05/22 13:09:50;;;;;;;37.60;25.05;;;;;;;24.66;65.69;101396.72;4836034;29;20048;-88
2023/05/22 13:12:33;;;;;;;35.40;24.05;;;;;;;24.83;63.12;101389.34;4921191;29;20142;-88
2023/05/22 13:15:17;;;;;;;34.70;23.88;;;;;;;25.10;64.49;101417.34;4922744;29;20134;-89
2023/05/22 13:18:23;;;;;;;38.60;24.15;;;;;;;25.15;64.98;101409.00;4909131;29;20107;-88
2023/05/22 13:21:12;;;;;;;35.53;22.25;;;;;;;25.18;63.75;101401.66;4912588;29;20060;-88
2023/05/22 13:24:12;;;;;;;36.13;22.20;;;;;;;25.30;64.07;101417.63;4920569;29;20044;-88
2023/05/22 13:27:18;;;;;;;38.35;25.35;;;;;;;25.32;63.91;101397.94;4907927;29;20036;-88
2023/05/22 13:29:50;;;;;;;34.35;23.60;;;;;;;25.32;63.24;101394.44;4921691;29;20076;-88
2023/05/22 13:32:45;;;;;;;39.65;24.65;;;;;;;25.22;62.57;101418.19;4918308;29;20067;-88
2023/05/22 13:35:27;;;;;;;36.50;23.67;;;;;;;25.00;64.43;101389.78;4919882;29;20039;-88
2023/05/22 13:38:13;;;;;;;34.72;23.92;;;;;;;24.94;65.73;101398.22;4904253;29;20441;-89
2023/05/22 13:41:04;;;;;;;34.45;22.42;;;;;;;25.00;65.26;101418.13;4907791;29;20040;-88
2023/05/22 13:43:49;;;;;;;;;;;;;;;;;;;;;
2023/05/22 13:46:31;;;;;;;32.15;21.23;;;;;;;25.12;64.76;101415.38;4923043;29;20036;-88
2023/05/22 13:49:14;;;;;;;37.88;25.58;;;;;;;24.90;63.00;101388.81;4911323;29;20501;-89
2023/05/22 13:51:59;;;;;;;38.45;25.10;;;;;;;24.86;63.18;101420.91;4908716;29;20040;-89
2023/05/22 13:54:40;;;;;;;36.10;24.02;;;;;;;24.57;64.84;101397.41;4921107;29;20075;-88
2023/05/22 13:57:21;;;;;;;39.13;25.08;;;;;;;24.67;64.21;101417.00;4919299;29;20131;-89
2023/05/22 14:00:02;;;;;;;33.13;22.55;;;;;;;24.58;65.06;101387.63;4905654;29;20043;-88
2023/05/22 14:02:37;;;;;;;38.58;22.25;;;;;;;24.87;62.72;101404.91;4907705;29;20047;-89
2023/05/22 14:05:16;;;;;;;34.03;22.80;;;;;;;24.83;65.08;101392.00;4907040;29;20062;-88
2023/05/22 14:07:50;;;;;;;34.80;22.52;;;;;;;24.83;64.32;101394.66;4920795;29;20878;-89
2023/05/22 14:10:29;;;;;;;36.50;24.20;;;;;;;24.83;64.69;101408.75;4907130;29;20054;-88
2023/05/22 14:12:58;;;;;;;33.33;21.83;;;;;;;24.84;64.66;101404.28;4919281;29;20416;-88
2023/05/22 14:15:49;;;;;;;36.30;25.08;;;;;;;24.90;65.10;101407.38;4906241;29;20394;-88
2023/05/22 14:50:21;;;;;;;37.47;23.35;;;;;;;24.94;66.16;101424.75;4735452;30;20062;-91
2023/05/22 14:53:16;;;;;;;37.65;24.02;;;;;;;24.93;65.10;101431.00;4832475;29;20613;-92
2023/05/22 14:55:56;;;;;;;;;;;;;;;24.95;66.23;101429.09;4884796;29;20045;-90
2023/05/22 14:58:40;;;;;;;34.90;20.88;;;;;;;24.60;67.28;101426.34;4921519;29;19923;-91
2023/05/22 15:01:07;;;;;;;33.25;20.77;;;;;;;24.35;66.11;101418.50;4925231;29;20040;-90
2023/05/22 15:03:47;;;;;;;36.10;21.20;;;;;;;24.34;65.42;101444.16;4923834;29;20088;-90
2023/05/22 15:06:28;;;;;;;36.63;20.40;;;;;;;24.27;66.77;101442.88;4921158;29;20063;-90
2023/05/22 15:12:12;;;;;;;35.75;19.13;;;;;;;24.25;68.32;101439.50;4921311;29;20055;-91
2023/05/22 15:14:49;;;;;;;39.25;21.38;;;;;;;24.25;66.88;101442.16;4924826;29;20486;-90
2023/05/22 15:17:30;;;;;;;42.15;22.73;;;;;;;24.12;66.48;101428.03;4922637;29;20421;-91
2023/05/22 15:20:34;;;;;;;39.67;19.70;;;;;;;24.24;66.68;101451.03;4922044;29;20565;-89
2023/05/22 15:23:27;;;;;;;36.47;20.02;;;;;;;24.21;68.22;101437.19;4927370;29;20044;-88
2023/05/22 15:26:10;;;;;;;34.72;19.15;;;;;;;24.12;68.33;101433.34;4931719;29;20500;-89
2023/05/22 15:28:50;;;;;;;40.50;20.42;;;;;;;24.28;66.39;101447.25;4920540;29;20653;-88
2023/05/22 15:31:46;;;;;;;33.42;18.88;;;;;;;24.17;70.14;101447.09;4919968;29;20520;-89
2023/05/22 15:34:22;;;;;;;32.40;17.77;;;;;;;24.06;70.20;101428.47;4934073;29;20080;-88
2023/05/22 15:37:03;;;;;;;36.03;20.17;;;;;;;24.01;67.79;101433.28;4920131;29;20314;-88
2023/05/22 15:40:17;;;;;;;36.42;20.75;;;;;;;24.00;67.71;101450.97;4919085;29;20040;-88
2023/05/22 15:43:11;;;;;;;35.60;20.70;;;;;;;23.88;68.29;101448.31;4936613;29;20047;-88
2023/05/22 15:46:15;;;;;;;35.10;19.88;;;;;;;23.72;69.01;101429.16;4922741;29;20040;-88
2023/05/22 15:55:34;;;;;;;37.20;20.02;;;;;;;23.77;69.19;101422.56;4877020;29;20032;-89
2023/05/22 15:58:14;;;;;;;32.33;18.40;;;;;;;23.97;69.19;101437.91;4929543;29;20044;-89
2023/05/22 16:00:49;;;;;;;35.15;19.08;;;;;;;23.94;69.23;101426.72;4926947;29;20043;-89
2023/05/22 16:03:30;;;;;;;31.02;19.52;;;;;;;23.92;70.00;101425.97;4924323;29;20038;-88
2023/05/22 16:06:21;;;;;;;31.83;20.67;;;;;;;23.93;68.87;101423.22;4922693;29;20047;-90
2023/05/22 16:08:55;;;;;;;31.85;19.17;;;;;;;23.98;69.45;101441.41;4920181;29;21332;-91
2023/05/22 16:11:39;;;;;;;28.58;19.25;;;;;;;23.89;68.59;101420.88;4933108;29;20051;-89
2023/05/22 16:14:18;;;;;;;30.08;19.33;;;;;;;23.86;70.43;101434.34;4920150;29;20174;-90
2023/05/22 16:17:01;;;;;;;26.58;18.02;;;;;;;23.73;70.61;101414.97;4922735;29;20032;-89
2023/05/22 16:19:42;;;;;;;28.30;19.30;;;;;;;23.62;69.44;101419.19;4923812;29;20409;-89
2023/05/22 16:22:36;;;;;;;27.08;18.48;;;;;;;23.61;69.50;101428.06;4926603;29;20582;-89
2023/05/22 16:25:06;;;;;;;27.13;18.55;;;;;;;23.75;69.43;101450.94;4922238;29;20134;-89
2023/05/22 16:31:23;;;;;;;26.95;17.58;;;;;;;23.81;69.38;101462.94;4918008;29;20127;-88
2023/05/22 16:34:14;;;;;;;17.70;12.05;;;;;;;23.43;68.73;101457.56;4923572;29;20040;-89
2023/05/22 16:36:43;;;;;;;14.10;9.52;;;;;;;23.12;66.59;101472.03;4921716;29;20615;-90
2023/05/22 16:42:24;;;;;;;12.07;8.95;;;;;;;22.39;67.82;101459.06;4924060;29;20039;-90
2023/05/22 16:45:09;;;;;;;;;;;;;;;;;;;;;
2023/05/22 16:47:52;;;;;;;12.70;8.30;;;;;;;22.16;68.70;101486.09;4922528;29;20050;-95
2023/05/22 16:53:30;;;;;;;19.73;17.67;;;;;;;22.08;68.27;101479.56;4911952;29;20043;-94
2023/05/22 16:56:23;;;;;;;27.08;24.08;;;;;;;21.96;67.86;101466.19;4922085;29;20038;-94
2023/05/22 16:59:14;;;;;;;210.10;121.97;;;;;;;21.99;69.13;101481.81;4923868;29;20043;-93
2023/05/22 17:02:20;;;;;;;15.77;11.48;;;;;;;21.95;68.97;101485.56;4926856;29;20270;-94
2023/05/22 17:05:01;;;;;;;;;;;;;;;;;;;;;
2023/05/22 17:07:48;;;;;;;10.73;7.10;;;;;;;21.73;68.04;101474.59;4922439;29;20086;-96
2023/05/22 17:10:53;;;;;;;10.77;6.32;;;;;;;21.72;67.54;101486.09;4923716;29;20040;-93
2023/05/22 17:13:37;;;;;;;10.18;6.45;;;;;;;21.68;68.37;101500.44;4923204;29;20043;-94
2023/05/22 17:16:15;;;;;;;;;;;;;;;21.81;66.76;101500.53;4916105;29;20397;-92
2023/05/22 17:19:06;;;;;;;9.75;7.22;;;;;;;21.67;65.82;101504.84;4933872;29;19969;-93
2023/05/22 17:21:55;;;;;;;7.70;6.20;;;;;;;21.54;65.28;101492.47;4921122;29;20123;-92
2023/05/22 17:24:57;;;;;;;9.32;6.50;;;;;;;21.49;65.48;101502.47;4923690;29;20134;-93
2023/05/22 17:28:46;;;;;;;9.70;6.05;;;;;;;21.40;66.86;101487.16;4936781;29;20047;-94
2023/05/22 17:31:51;;;;;;;7.18;5.65;;;;;;;21.35;66.16;101498.00;4905245;29;20066;-94
2023/05/22 17:38:01;;;;;;;8.25;5.60;;;;;;;21.19;65.12;101518.25;4921574;29;20039;-92
2023/05/22 17:41:30;;;;;;;;;;;;;;;;;;;;;
2023/05/22 18:31:33;;;;;;;7.97;5.15;;;;;;;20.19;71.22;101561.47;4699188;23;20610;-93
2023/05/22 18:34:01;;;;;;;10.40;5.38;;;;;;;20.19;70.43;101579.91;4966710;28;20125;-92
2023/05/22 18:41:41;;;;;;;6.75;4.75;;;;;;;20.00;73.25;101581.75;4977032;28;20046;-80
2023/05/22 18:44:07;;;;;;;8.45;5.30;;;;;;;19.89;72.25;101573.56;5033940;23;20125;-72
2023/05/22 18:49:15;;;;;;;8.07;5.32;;;;;;;19.84;72.98;101586.13;4931329;29;20045;-73
2023/05/22 18:59:33;;;;;;;8.73;5.15;;;;;;;19.63;73.17;101588.03;4954372;28;20058;-95
2023/05/22 19:06:31;;;;;;;11.75;5.40;;;;;;;19.47;74.46;101603.69;4932303;29;20040;-95
2023/05/22 19:23:32;;;;;;;9.48;6.18;;;;;;;18.91;77.05;101601.94;4782963;29;20070;-95
2023/05/22 19:30:23;;;;;;;;;;;;;;;;;;;;;
2023/05/22 19:33:24;;;;;;;9.98;5.88;;;;;;;18.83;77.83;101632.97;4794932;29;20035;-95
2023/05/22 19:37:01;;;;;;;;;;;;;;;;;;;;;
2023/05/22 19:39:41;;;;;;;;;;;;;;;;;;;;;
2023/05/22 19:42:31;;;;;;;11.23;6.55;;;;;;;18.51;79.35;101625.66;4835795;29;20478;-96
2023/05/22 19:49:21;;;;;;;9.93;6.25;;;;;;;18.48;79.81;101642.41;4819899;29;20038;-95
2023/05/22 19:52:55;;;;;;;;;;;;;;;;;;;;;
2023/05/22 19:56:03;;;;;;;;;;;;;;;;;;;;;
2023/05/22 19:59:00;;;;;;;9.30;6.43;;;;;;;18.28;81.79;101649.44;4827490;29;20038;-94
2023/05/22 20:01:43;;;;;;;11.65;6.68;;;;;;;18.22;82.93;101649.69;4813836;29;20126;-95
2023/05/22 20:04:23;;;;;;;10.57;6.82;;;;;;;18.14;83.11;101650.88;4871642;29;20044;-96
2023/05/22 20:07:51;;;;;;;11.20;6.60;;;;;;;18.23;83.15;101661.88;4877541;29;20374;-95
2023/05/22 20:20:55;;;;;;;9.82;6.97;;;;;;;17.82;86.88;101658.34;4920482;29;20096;-94
2023/05/22 20:24:20;;;;;;;;;;;;;;;;;;;;;
2023/05/22 20:27:31;;;;;;;;;;;;;;;17.90;83.36;101685.97;4943443;28;20068;-95
2023/05/22 20:34:00;;;;;;;13.77;7.88;;;;;;;17.64;86.91;101697.53;4956956;28;20130;-96
2023/05/22 20:42:37;;;;;;;14.05;9.00;;;;;;;17.41;89.92;101699.28;4971035;23;20491;-78
2023/05/22 20:47:43;;;;;;;13.82;9.80;;;;;;;17.32;91.68;101701.38;5248969;23;20362;-79
2023/05/22 21:07:34;;;;;;;;;;;;;;;;;;;;;
2023/05/22 21:10:10;;;;;;;18.33;11.40;;;;;;;17.39;94.18;101741.31;5018922;23;20055;-78